Time;durP1;ratioP1;P1;durP2;ratioP2;P2;SDS_P1;SDS_P2;PMS_P1;PMS_P2;Temp;Humidity;BMP_temperature;BMP_pressure;BME280_temperature;BME280_humidity;BME280_pressure;Samples;Min_cycle;Max_cycle;Signal;HPM_P1;HPM_P2
2023/01/24 00:01:26;;;;;;;20.23;10.88;;;;;;;3.93;100.00;103894.47;2616057;36;20836;-59
2023/01/24 00:03:54;;;;;;;18.67;10.75;;;;;;;3.89;100.00;103904.28;2615645;36;20034;-59
2023/01/24 00:06:23;;;;;;;18.83;10.38;;;;;;;4.05;100.00;103894.34;2617229;31;20141;-59
2023/01/24 00:08:51;;;;;;;18.75;11.32;;;;;;;4.20;100.00;103904.78;2616593;36;20053;-60
2023/01/24 00:11:20;;;;;;;19.17;10.70;;;;;;;3.96;100.00;103897.09;2616090;36;20041;-60
2023/01/24 00:13:48;;;;;;;18.65;10.13;;;;;;;4.10;100.00;103888.94;2615540;36;20038;-60
2023/01/24 00:16:21;;;;;;;19.05;10.05;;;;;;;4.04;100.00;103892.56;2615658;36;20073;-59
2023/01/24 00:18:50;;;;;;;18.80;10.50;;;;;;;4.05;100.00;103883.69;2615548;36;20046;-59
2023/01/24 00:21:21;;;;;;;15.05;8.85;;;;;;;4.14;100.00;103886.22;2615986;36;20038;-60
2023/01/24 00:23:52;;;;;;;19.52;10.48;;;;;;;4.07;100.00;103883.66;2615175;36;20034;-59
2023/01/24 00:26:21;;;;;;;18.80;10.13;;;;;;;4.06;100.00;103890.75;2614477;31;20447;-60
2023/01/24 00:28:50;;;;;;;20.38;10.63;;;;;;;4.04;100.00;103890.78;2614338;36;20568;-60
2023/01/24 00:31:21;;;;;;;16.58;9.57;;;;;;;4.00;100.00;103897.03;2615244;31;20022;-60
2023/01/24 00:33:50;;;;;;;18.23;10.20;;;;;;;4.06;100.00;103884.53;2614576;36;20038;-59
2023/01/24 00:36:19;;;;;;;21.02;10.73;;;;;;;4.11;100.00;103888.03;2614231;36;20479;-59
2023/01/24 00:38:47;;;;;;;18.73;10.65;;;;;;;3.96;100.00;103889.09;2615831;36;20026;-60
2023/01/24 00:41:15;;;;;;;18.63;11.52;;;;;;;3.92;100.00;103888.25;2614695;36;20555;-59
2023/01/24 00:43:44;;;;;;;19.90;10.43;;;;;;;3.94;100.00;103878.47;2615281;36;20041;-59
2023/01/24 00:46:12;;;;;;;15.73;10.23;;;;;;;4.03;100.00;103882.78;2615486;36;20043;-59
2023/01/24 00:48:43;;;;;;;16.92;9.95;;;;;;;4.03;100.00;103867.72;2614003;36;20039;-60
2023/01/24 00:51:11;;;;;;;18.17;9.60;;;;;;;3.96;100.00;103867.78;2614738;36;20045;-59
2023/01/24 00:53:39;;;;;;;20.70;9.95;;;;;;;4.15;100.00;103866.66;2614734;31;20556;-60
2023/01/24 00:56:09;;;;;;;22.42;11.40;;;;;;;4.06;100.00;103865.88;2615191;36;20030;-60
2023/01/24 00:58:38;;;;;;;18.55;10.13;;;;;;;4.13;100.00;103860.44;2614338;36;20038;-60
2023/01/24 01:01:06;;;;;;;18.83;9.93;;;;;;;4.17;100.00;103867.50;2615395;36;20291;-59
2023/01/24 01:03:35;;;;;;;15.95;9.00;;;;;;;3.96;100.00;103863.34;2614400;36;20023;-60
2023/01/24 01:06:08;;;;;;;17.52;9.50;;;;;;;4.10;100.00;103863.16;2615152;36;20027;-60
2023/01/24 01:08:36;;;;;;;15.75;9.23;;;;;;;3.95;100.00;103863.38;2614224;36;20046;-60
2023/01/24 01:11:06;;;;;;;19.85;10.45;;;;;;;4.00;100.00;103861.50;2616058;36;20037;-60
2023/01/24 01:13:34;;;;;;;16.38;9.55;;;;;;;4.03;100.00;103858.81;2615192;36;20069;-59
2023/01/24 01:16:04;;;;;;;15.85;9.20;;;;;;;4.06;100.00;103858.75;2615566;36;20023;-59
2023/01/24 01:18:32;;;;;;;17.75;9.63;;;;;;;4.05;100.00;103862.34;2614179;36;20026;-59
2023/01/24 01:21:01;;;;;;;19.30;9.63;;;;;;;4.23;100.00;103860.34;2615603;36;20030;-60
2023/01/24 01:23:32;;;;;;;15.43;8.85;;;;;;;4.07;100.00;103865.00;2615314;36;20907;-60
2023/01/24 01:26:04;;;;;;;15.90;9.23;;;;;;;3.98;100.00;103855.34;2614599;36;20030;-60
2023/01/24 01:28:33;;;;;;;17.33;9.75;;;;;;;4.03;100.00;103858.81;2614254;36;20041;-60
2023/01/24 01:31:01;;;;;;;16.70;9.63;;;;;;;3.94;100.00;103858.94;2615194;36;20038;-60
2023/01/24 01:33:30;;;;;;;19.10;9.63;;;;;;;3.91;100.00;103858.97;2614650;36;20030;-59
2023/01/24 01:35:58;;;;;;;17.53;9.73;;;;;;;3.90;100.00;103858.09;2613937;36;20552;-58
2023/01/24 01:38:27;;;;;;;18.55;9.70;;;;;;;3.93;100.00;103863.38;2614944;36;20038;-60
2023/01/24 01:40:59;;;;;;;16.85;9.23;;;;;;;3.90;100.00;103863.44;2614543;31;20034;-59
2023/01/24 01:43:29;;;;;;;17.98;9.18;;;;;;;3.94;100.00;103859.81;2615945;36;20061;-59
2023/01/24 01:46:02;;;;;;;17.25;9.48;;;;;;;3.96;100.00;103862.44;2615222;36;20038;-59
2023/01/24 01:48:38;;;;;;;19.15;9.68;;;;;;;3.88;100.00;103859.88;2615097;36;20031;-59
2023/01/24 01:51:14;;;;;;;18.13;9.90;;;;;;;3.95;100.00;103866.03;2614970;36;20034;-59
2023/01/24 01:53:48;;;;;;;16.98;9.23;;;;;;;3.98;100.00;103866.00;2614637;36;20046;-60
2023/01/24 01:56:25;;;;;;;19.10;10.00;;;;;;;3.96;100.00;103863.34;2615598;36;20413;-59
2023/01/24 01:58:54;;;;;;;18.45;8.80;;;;;;;4.14;100.00;103866.69;2614346;36;20560;-60
2023/01/24 02:01:23;;;;;;;;;;;;;;;4.02;100.00;103857.06;2615354;36;20037;-58
2023/01/24 02:03:56;;;;;;;18.67;10.50;;;;;;;3.81;100.00;103861.75;2614738;36;19957;-61
2023/01/24 02:06:40;;;;;;;19.20;8.80;;;;;;;3.86;100.00;103851.91;2615139;36;20042;-59
2023/01/24 02:09:11;;;;;;;19.33;10.00;;;;;;;3.84;100.00;103848.41;2615850;36;20045;-60
2023/01/24 02:11:43;;;;;;;18.25;9.88;;;;;;;3.78;100.00;103863.56;2615492;36;20038;-60
2023/01/24 02:17:10;;;;;;;19.17;10.45;;;;;;;3.90;100.00;103860.75;2619538;36;20023;-59
2023/01/24 02:19:55;;;;;;;17.75;10.15;;;;;;;3.99;100.00;103867.72;2615189;36;20041;-59
2023/01/24 02:22:31;;;;;;;18.67;9.82;;;;;;;3.71;100.00;103859.19;2620350;36;20149;-59
2023/01/24 02:25:08;;;;;;;21.70;9.82;;;;;;;3.66;100.00;103854.78;2618142;31;20064;-60
2023/01/24 02:27:39;;;;;;;20.13;11.48;;;;;;;3.68;100.00;103858.34;2619628;36;20038;-60
2023/01/24 02:30:12;;;;;;;20.80;10.95;;;;;;;3.63;100.00;103856.63;2620111;36;20022;-59
2023/01/24 02:32:41;;;;;;;19.10;10.25;;;;;;;3.65;100.00;103854.81;2619038;36;20045;-59
2023/01/24 02:35:23;;;;;;;22.92;9.88;;;;;;;3.64;100.00;103858.41;2619213;31;20066;-60
2023/01/24 02:37:52;;;;;;;19.00;10.45;;;;;;;3.81;100.00;103861.75;2618475;36;20038;-59
2023/01/24 02:40:21;;;;;;;18.00;10.15;;;;;;;3.72;100.00;103864.50;2619057;36;20393;-60
2023/01/24 02:42:53;;;;;;;16.88;9.73;;;;;;;3.89;100.00;103861.66;2619158;36;20046;-60
2023/01/24 02:45:25;;;;;;;20.17;10.45;;;;;;;4.01;100.00;103861.50;2619633;36;20045;-60
2023/01/24 02:47:55;;;;;;;22.52;11.23;;;;;;;3.89;100.00;103860.75;2617914;36;20030;-60
2023/01/24 02:50:26;;;;;;;15.82;9.23;;;;;;;3.76;100.00;103860.03;2618972;36;20049;-59
2023/01/24 02:58:05;;;;;;;21.40;11.55;;;;;;;3.79;100.00;103865.34;2619726;36;20126;-59
2023/01/24 02:58:27;;;;;;;22.05;11.95;;;;;;;3.68;100.00;103860.09;2618786;36;20038;-60
2023/01/24 03:00:55;;;;;;;18.58;11.10;;;;;;;3.66;100.00;103854.78;2619300;36;20034;-59
2023/01/24 03:03:23;;;;;;;25.13;12.45;;;;;;;3.63;100.00;103857.50;2618779;36;20463;-59
2023/01/24 03:05:58;;;;;;;23.58;12.48;;;;;;;3.68;100.00;103852.13;2619666;36;20034;-60
2023/01/24 03:08:28;;;;;;;23.52;12.02;;;;;;;3.65;100.00;103846.81;2618059;36;20085;-59
2023/01/24 03:10:57;;;;;;;20.50;11.85;;;;;;;3.50;100.00;103848.78;2619669;36;20061;-59
2023/01/24 03:35:01;;;;;;;22.13;11.73;;;;;;;3.56;100.00;103837.16;2615229;36;20114;-59
2023/01/24 03:40:13;;;;;;;21.50;12.25;;;;;;;3.55;100.00;103840.75;2615742;36;20057;-59
2023/01/24 03:42:49;;;;;;;19.70;10.90;;;;;;;3.63;100.00;103844.19;2615511;36;20616;-59
2023/01/24 03:45:21;;;;;;;20.55;11.15;;;;;;;3.57;100.00;103843.38;2615440;36;20126;-59
2023/01/24 03:48:04;;;;;;;21.70;12.13;;;;;;;3.68;100.00;103841.47;2614986;36;20034;-59
2023/01/24 03:53:17;;;;;;;25.80;14.10;;;;;;;3.81;100.00;103843.09;2615014;36;20042;-59
